sensor_id;sensor_type;location;lat;lon;timestamp;P1;durP1;ratioP1;P2;durP2;ratioP2
3068;SDS011;1545;51.728;8.796;2023-02-27T00:02:06;24.67;;;11.93;;
3068;SDS011;1545;51.728;8.796;2023-02-27T00:04:32;23.47;;;10.93;;
3068;SDS011;1545;51.728;8.796;2023-02-27T00:06:57;30.47;;;11.77;;
3068;SDS011;1545;51.728;8.796;2023-02-27T00:09:23;24.50;;;11.80;;
3068;SDS011;1545;51.728;8.796;2023-02-27T00:11:48;25.80;;;12.23;;
3068;SDS011;1545;51.728;8.796;2023-02-27T00:14:14;24.80;;;12.23;;
3068;SDS011;1545;51.728;8.796;2023-02-27T00:16:39;27.90;;;13.53;;
3068;SDS011;1545;51.728;8.796;2023-02-27T00:19:05;24.20;;;12.70;;
3068;SDS011;1545;51.728;8.796;2023-02-27T00:21:30;29.63;;;12.93;;
3068;SDS011;1545;51.728;8.796;2023-02-27T00:23:56;29.17;;;14.10;;
3068;SDS011;1545;51.728;8.796;2023-02-27T00:26:22;28.67;;;12.93;;
3068;SDS011;1545;51.728;8.796;2023-02-27T00:28:48;31.50;;;13.20;;
3068;SDS011;1545;51.728;8.796;2023-02-27T00:31:13;34.10;;;14.43;;
3068;SDS011;1545;51.728;8.796;2023-02-27T00:33:39;27.43;;;13.63;;
3068;SDS011;1545;51.728;8.796;2023-02-27T00:36:04;28.83;;;12.67;;
3068;SDS011;1545;51.728;8.796;2023-02-27T00:38:30;28.63;;;13.37;;
3068;SDS011;1545;51.728;8.796;2023-02-27T00:40:56;36.00;;;14.63;;
3068;SDS011;1545;51.728;8.796;2023-02-27T00:43:22;30.77;;;13.67;;
3068;SDS011;1545;51.728;8.796;2023-02-27T00:45:48;31.60;;;12.73;;
3068;SDS011;1545;51.728;8.796;2023-02-27T00:48:14;25.70;;;13.43;;
3068;SDS011;1545;51.728;8.796;2023-02-27T00:50:40;25.90;;;11.30;;
3068;SDS011;1545;51.728;8.796;2023-02-27T00:53:06;21.13;;;11.27;;
3068;SDS011;1545;51.728;8.796;2023-02-27T00:55:31;26.90;;;10.47;;
3068;SDS011;1545;51.728;8.796;2023-02-27T00:57:57;21.53;;;10.37;;
3068;SDS011;1545;51.728;8.796;2023-02-27T01:00:22;21.80;;;9.57;;
3068;SDS011;1545;51.728;8.796;2023-02-27T01:02:48;27.23;;;10.40;;
3068;SDS011;1545;51.728;8.796;2023-02-27T01:05:14;23.90;;;10.20;;
3068;SDS011;1545;51.728;8.796;2023-02-27T01:07:39;20.27;;;9.83;;
3068;SDS011;1545;51.728;8.796;2023-02-27T01:10:05;18.67;;;10.00;;
3068;SDS011;1545;51.728;8.796;2023-02-27T01:12:32;18.80;;;9.77;;
3068;SDS011;1545;51.728;8.796;2023-02-27T01:14:58;26.23;;;9.57;;
3068;SDS011;1545;51.728;8.796;2023-02-27T01:17:23;23.40;;;9.93;;
3068;SDS011;1545;51.728;8.796;2023-02-27T01:19:49;18.37;;;9.40;;
3068;SDS011;1545;51.728;8.796;2023-02-27T01:22:14;23.07;;;9.80;;
3068;SDS011;1545;51.728;8.796;2023-02-27T01:24:40;21.63;;;9.67;;
3068;SDS011;1545;51.728;8.796;2023-02-27T01:27:05;18.37;;;9.40;;
3068;SDS011;1545;51.728;8.796;2023-02-27T01:29:31;23.90;;;10.37;;
3068;SDS011;1545;51.728;8.796;2023-02-27T01:31:56;22.47;;;9.63;;
3068;SDS011;1545;51.728;8.796;2023-02-27T01:34:25;25.00;;;10.03;;
3068;SDS011;1545;51.728;8.796;2023-02-27T01:36:50;15.90;;;8.73;;
3068;SDS011;1545;51.728;8.796;2023-02-27T01:39:16;18.53;;;9.63;;
3068;SDS011;1545;51.728;8.796;2023-02-27T01:41:41;15.33;;;8.47;;
3068;SDS011;1545;51.728;8.796;2023-02-27T01:44:08;16.93;;;8.20;;
3068;SDS011;1545;51.728;8.796;2023-02-27T01:46:35;20.33;;;8.30;;
3068;SDS011;1545;51.728;8.796;2023-02-27T01:49:08;23.87;;;9.47;;
3068;SDS011;1545;51.728;8.796;2023-02-27T01:51:36;25.83;;;9.90;;
3068;SDS011;1545;51.728;8.796;2023-02-27T01:54:06;17.93;;;9.03;;
3068;SDS011;1545;51.728;8.796;2023-02-27T01:56:33;19.13;;;9.00;;
3068;SDS011;1545;51.728;8.796;2023-02-27T01:59:00;21.23;;;8.87;;
3068;SDS011;1545;51.728;8.796;2023-02-27T02:01:29;19.73;;;9.10;;
3068;SDS011;1545;51.728;8.796;2023-02-27T02:03:59;26.43;;;9.80;;
3068;SDS011;1545;51.728;8.796;2023-02-27T02:06:57;24.40;;;9.37;;
3068;SDS011;1545;51.728;8.796;2023-02-27T02:09:24;21.60;;;9.17;;
3068;SDS011;1545;51.728;8.796;2023-02-27T02:11:51;25.20;;;10.33;;
3068;SDS011;1545;51.728;8.796;2023-02-27T02:14:18;25.03;;;10.30;;
3068;SDS011;1545;51.728;8.796;2023-02-27T02:30:57;21.57;;;9.57;;
3068;SDS011;1545;51.728;8.796;2023-02-27T02:53:50;21.83;;;9.87;;
3068;SDS011;1545;51.728;8.796;2023-02-27T02:56:36;25.73;;;10.23;;
3068;SDS011;1545;51.728;8.796;2023-02-27T02:59:32;23.87;;;10.00;;
3068;SDS011;1545;51.728;8.796;2023-02-27T03:02:05;18.03;;;8.70;;
3068;SDS011;1545;51.728;8.796;2023-02-27T03:04:38;21.00;;;9.00;;
3068;SDS011;1545;51.728;8.796;2023-02-27T03:07:15;19.93;;;9.67;;
3068;SDS011;1545;51.728;8.796;2023-02-27T03:12:22;19.67;;;9.87;;
3068;SDS011;1545;51.728;8.796;2023-02-27T03:14:52;25.53;;;9.33;;
3068;SDS011;1545;51.728;8.796;2023-02-27T03:17:39;21.90;;;10.00;;
3068;SDS011;1545;51.728;8.796;2023-02-27T03:20:11;22.83;;;10.30;;
3068;SDS011;1545;51.728;8.796;2023-02-27T03:22:42;20.63;;;10.17;;
3068;SDS011;1545;51.728;8.796;2023-02-27T03:25:12;21.20;;;9.77;;
3068;SDS011;1545;51.728;8.796;2023-02-27T03:28:00;22.67;;;9.53;;
3068;SDS011;1545;51.728;8.796;2023-02-27T03:30:28;28.27;;;10.13;;
3068;SDS011;1545;51.728;8.796;2023-02-27T03:33:00;16.40;;;8.60;;
3068;SDS011;1545;51.728;8.796;2023-02-27T03:35:52;18.70;;;8.60;;
3068;SDS011;1545;51.728;8.796;2023-02-27T03:38:50;15.63;;;8.30;;
3068;SDS011;1545;51.728;8.796;2023-02-27T03:41:41;16.93;;;7.37;;
3068;SDS011;1545;51.728;8.796;2023-02-27T03:44:36;20.07;;;8.37;;
3068;SDS011;1545;51.728;8.796;2023-02-27T03:47:20;19.30;;;8.23;;
3068;SDS011;1545;51.728;8.796;2023-02-27T03:49:46;20.80;;;6.73;;
3068;SDS011;1545;51.728;8.796;2023-02-27T03:52:15;20.27;;;9.40;;
3068;SDS011;1545;51.728;8.796;2023-02-27T03:54:44;19.00;;;8.57;;
3068;SDS011;1545;51.728;8.796;2023-02-27T03:57:16;21.17;;;8.43;;
3068;SDS011;1545;51.728;8.796;2023-02-27T03:59:42;19.77;;;9.00;;
3068;SDS011;1545;51.728;8.796;2023-02-27T04:02:08;21.17;;;9.00;;
3068;SDS011;1545;51.728;8.796;2023-02-27T04:04:33;17.40;;;8.03;;
3068;SDS011;1545;51.728;8.796;2023-02-27T04:07:04;18.97;;;8.67;;
3068;SDS011;1545;51.728;8.796;2023-02-27T04:12:35;20.50;;;9.07;;
3068;SDS011;1545;51.728;8.796;2023-02-27T04:21:15;23.43;;;9.40;;
3068;SDS011;1545;51.728;8.796;2023-02-27T04:26:57;24.73;;;9.40;;
3068;SDS011;1545;51.728;8.796;2023-02-27T04:29:39;24.70;;;9.60;;
3068;SDS011;1545;51.728;8.796;2023-02-27T04:32:16;26.60;;;9.90;;
3068;SDS011;1545;51.728;8.796;2023-02-27T04:34:53;19.27;;;9.43;;
3068;SDS011;1545;51.728;8.796;2023-02-27T04:40:11;25.83;;;9.07;;
3068;SDS011;1545;51.728;8.796;2023-02-27T04:42:44;17.90;;;8.90;;
3068;SDS011;1545;51.728;8.796;2023-02-27T04:45:14;22.20;;;9.10;;
3068;SDS011;1545;51.728;8.796;2023-02-27T04:47:45;21.17;;;9.33;;
3068;SDS011;1545;51.728;8.796;2023-02-27T04:50:21;17.17;;;9.33;;
3068;SDS011;1545;51.728;8.796;2023-02-27T04:52:56;33.63;;;9.30;;
3068;SDS011;1545;51.728;8.796;2023-02-27T04:55:50;24.20;;;9.93;;
3068;SDS011;1545;51.728;8.796;2023-02-27T04:58:25;26.00;;;9.80;;
3068;SDS011;1545;51.728;8.796;2023-02-27T05:01:25;25.33;;;8.87;;
3068;SDS011;1545;51.728;8.796;2023-02-27T05:04:03;17.63;;;8.87;;
3068;SDS011;1545;51.728;8.796;2023-02-27T05:06:32;21.50;;;9.30;;
3068;SDS011;1545;51.728;8.796;2023-02-27T05:09:03;18.87;;;8.80;;
3068;SDS011;1545;51.728;8.796;2023-02-27T05:11:40;22.87;;;8.50;;
3068;SDS011;1545;51.728;8.796;2023-02-27T05:14:16;24.57;;;9.13;;
3068;SDS011;1545;51.728;8.796;2023-02-27T05:17:06;27.77;;;9.00;;
3068;SDS011;1545;51.728;8.796;2023-02-27T05:19:42;22.17;;;9.10;;
3068;SDS011;1545;51.728;8.796;2023-02-27T05:22:12;17.97;;;9.07;;
3068;SDS011;1545;51.728;8.796;2023-02-27T05:27:53;28.87;;;8.80;;
3068;SDS011;1545;51.728;8.796;2023-02-27T05:33:13;29.27;;;9.23;;
3068;SDS011;1545;51.728;8.796;2023-02-27T05:38:39;24.17;;;8.63;;
3068;SDS011;1545;51.728;8.796;2023-02-27T05:41:09;29.00;;;9.13;;
3068;SDS011;1545;51.728;8.796;2023-02-27T05:44:03;28.93;;;8.43;;
3068;SDS011;1545;51.728;8.796;2023-02-27T05:46:35;20.70;;;8.67;;
3068;SDS011;1545;51.728;8.796;2023-02-27T05:51:43;15.77;;;7.93;;
3068;SDS011;1545;51.728;8.796;2023-02-27T05:54:16;20.53;;;7.50;;
3068;SDS011;1545;51.728;8.796;2023-02-27T05:56:49;24.77;;;8.40;;
3068;SDS011;1545;51.728;8.796;2023-02-27T06:02:07;18.40;;;7.50;;
3068;SDS011;1545;51.728;8.796;2023-02-27T06:04:36;17.50;;;8.27;;
3068;SDS011;1545;51.728;8.796;2023-02-27T06:07:02;27.30;;;9.83;;
3068;SDS011;1545;51.728;8.796;2023-02-27T06:09:31;18.03;;;8.53;;
3068;SDS011;1545;51.728;8.796;2023-02-27T06:11:57;19.20;;;8.73;;
3068;SDS011;1545;51.728;8.796;2023-02-27T06:14:25;16.13;;;8.13;;
3068;SDS011;1545;51.728;8.796;2023-02-27T06:16:50;23.60;;;8.80;;
3068;SDS011;1545;51.728;8.796;2023-02-27T06:19:16;22.40;;;9.10;;
3068;SDS011;1545;51.728;8.796;2023-02-27T06:21:41;17.20;;;8.00;;
3068;SDS011;1545;51.728;8.796;2023-02-27T06:24:07;22.13;;;9.07;;
3068;SDS011;1545;51.728;8.796;2023-02-27T06:26:32;19.20;;;8.93;;
3068;SDS011;1545;51.728;8.796;2023-02-27T06:28:58;16.60;;;8.50;;
3068;SDS011;1545;51.728;8.796;2023-02-27T06:31:23;26.77;;;9.63;;
3068;SDS011;1545;51.728;8.796;2023-02-27T06:33:50;22.23;;;9.50;;
3068;SDS011;1545;51.728;8.796;2023-02-27T06:36:15;27.50;;;10.03;;
3068;SDS011;1545;51.728;8.796;2023-02-27T06:38:41;20.00;;;9.63;;
3068;SDS011;1545;51.728;8.796;2023-02-27T06:41:06;21.60;;;9.07;;
3068;SDS011;1545;51.728;8.796;2023-02-27T06:43:32;26.07;;;10.47;;
3068;SDS011;1545;51.728;8.796;2023-02-27T06:45:58;25.17;;;10.57;;
3068;SDS011;1545;51.728;8.796;2023-02-27T06:48:26;31.90;;;10.67;;
3068;SDS011;1545;51.728;8.796;2023-02-27T06:50:52;24.80;;;10.43;;
3068;SDS011;1545;51.728;8.796;2023-02-27T06:53:18;23.53;;;10.73;;
3068;SDS011;1545;51.728;8.796;2023-02-27T06:55:44;16.77;;;9.37;;
3068;SDS011;1545;51.728;8.796;2023-02-27T06:58:09;23.30;;;9.70;;
3068;SDS011;1545;51.728;8.796;2023-02-27T07:00:35;16.70;;;8.60;;
3068;SDS011;1545;51.728;8.796;2023-02-27T07:03:00;23.07;;;8.60;;
3068;SDS011;1545;51.728;8.796;2023-02-27T07:05:28;18.87;;;9.40;;
3068;SDS011;1545;51.728;8.796;2023-02-27T07:07:54;21.00;;;8.80;;
3068;SDS011;1545;51.728;8.796;2023-02-27T07:10:20;22.47;;;8.63;;
3068;SDS011;1545;51.728;8.796;2023-02-27T07:12:45;22.20;;;8.27;;
3068;SDS011;1545;51.728;8.796;2023-02-27T07:15:11;23.33;;;8.40;;
3068;SDS011;1545;51.728;8.796;2023-02-27T07:17:36;16.73;;;7.20;;
3068;SDS011;1545;51.728;8.796;2023-02-27T07:20:03;19.80;;;8.77;;
3068;SDS011;1545;51.728;8.796;2023-02-27T07:22:30;15.27;;;8.07;;
3068;SDS011;1545;51.728;8.796;2023-02-27T07:24:55;19.47;;;8.60;;
3068;SDS011;1545;51.728;8.796;2023-02-27T07:27:21;24.87;;;8.43;;
3068;SDS011;1545;51.728;8.796;2023-02-27T07:29:46;16.10;;;7.50;;
3068;SDS011;1545;51.728;8.796;2023-02-27T07:32:12;16.60;;;7.50;;
3068;SDS011;1545;51.728;8.796;2023-02-27T07:34:37;22.80;;;7.80;;
3068;SDS011;1545;51.728;8.796;2023-02-27T07:37:03;19.80;;;8.20;;
3068;SDS011;1545;51.728;8.796;2023-02-27T07:39:28;15.77;;;7.77;;
3068;SDS011;1545;51.728;8.796;2023-02-27T07:41:54;14.27;;;7.33;;
3068;SDS011;1545;51.728;8.796;2023-02-27T07:44:19;22.70;;;7.83;;
3068;SDS011;1545;51.728;8.796;2023-02-27T07:46:46;15.43;;;7.77;;
3068;SDS011;1545;51.728;8.796;2023-02-27T07:49:11;14.60;;;7.80;;
3068;SDS011;1545;51.728;8.796;2023-02-27T07:51:37;19.03;;;7.77;;
3068;SDS011;1545;51.728;8.796;2023-02-27T07:54:03;19.43;;;8.83;;
3068;SDS011;1545;51.728;8.796;2023-02-27T07:56:29;22.87;;;9.63;;
3068;SDS011;1545;51.728;8.796;2023-02-27T07:58:54;19.80;;;9.40;;
3068;SDS011;1545;51.728;8.796;2023-02-27T08:01:20;17.63;;;9.70;;
3068;SDS011;1545;51.728;8.796;2023-02-27T08:03:46;22.40;;;10.37;;
3068;SDS011;1545;51.728;8.796;2023-02-27T08:06:11;18.53;;;9.00;;
3068;SDS011;1545;51.728;8.796;2023-02-27T08:08:37;17.27;;;10.53;;
3068;SDS011;1545;51.728;8.796;2023-02-27T08:11:03;21.40;;;10.30;;
3068;SDS011;1545;51.728;8.796;2023-02-27T08:13:29;20.63;;;10.50;;
3068;SDS011;1545;51.728;8.796;2023-02-27T08:15:55;23.50;;;10.77;;
3068;SDS011;1545;51.728;8.796;2023-02-27T08:18:20;19.73;;;10.10;;
3068;SDS011;1545;51.728;8.796;2023-02-27T08:20:46;20.17;;;10.20;;
3068;SDS011;1545;51.728;8.796;2023-02-27T08:23:11;22.57;;;10.03;;
3068;SDS011;1545;51.728;8.796;2023-02-27T08:25:37;25.03;;;11.60;;
3068;SDS011;1545;51.728;8.796;2023-02-27T08:28:02;24.27;;;10.77;;
3068;SDS011;1545;51.728;8.796;2023-02-27T08:30:28;20.87;;;10.07;;
3068;SDS011;1545;51.728;8.796;2023-02-27T08:32:53;25.10;;;9.97;;
3068;SDS011;1545;51.728;8.796;2023-02-27T08:35:19;20.27;;;9.50;;
3068;SDS011;1545;51.728;8.796;2023-02-27T08:37:45;21.33;;;9.53;;
3068;SDS011;1545;51.728;8.796;2023-02-27T08:40:11;17.53;;;8.83;;
3068;SDS011;1545;51.728;8.796;2023-02-27T08:42:37;20.07;;;9.33;;
3068;SDS011;1545;51.728;8.796;2023-02-27T08:45:03;32.17;;;12.13;;
3068;SDS011;1545;51.728;8.796;2023-02-27T08:47:29;18.93;;;9.57;;
3068;SDS011;1545;51.728;8.796;2023-02-27T08:49:54;22.20;;;10.10;;
3068;SDS011;1545;51.728;8.796;2023-02-27T08:52:20;17.27;;;9.13;;
3068;SDS011;1545;51.728;8.796;2023-02-27T08:54:46;25.40;;;10.37;;
3068;SDS011;1545;51.728;8.796;2023-02-27T08:57:11;24.93;;;10.40;;
3068;SDS011;1545;51.728;8.796;2023-02-27T08:59:37;20.97;;;10.20;;
3068;SDS011;1545;51.728;8.796;2023-02-27T09:02:02;29.37;;;12.03;;
3068;SDS011;1545;51.728;8.796;2023-02-27T09:04:28;22.23;;;10.03;;
3068;SDS011;1545;51.728;8.796;2023-02-27T09:06:54;19.57;;;9.23;;
3068;SDS011;1545;51.728;8.796;2023-02-27T09:09:20;12.63;;;6.60;;
3068;SDS011;1545;51.728;8.796;2023-02-27T09:11:47;14.30;;;7.17;;
3068;SDS011;1545;51.728;8.796;2023-02-27T09:14:14;16.07;;;7.50;;
3068;SDS011;1545;51.728;8.796;2023-02-27T09:16:39;12.97;;;6.13;;
3068;SDS011;1545;51.728;8.796;2023-02-27T09:19:05;16.53;;;6.20;;
3068;SDS011;1545;51.728;8.796;2023-02-27T09:21:30;19.97;;;5.87;;
3068;SDS011;1545;51.728;8.796;2023-02-27T09:23:56;12.63;;;5.53;;
3068;SDS011;1545;51.728;8.796;2023-02-27T09:26:22;18.83;;;5.90;;
3068;SDS011;1545;51.728;8.796;2023-02-27T09:28:48;12.30;;;5.70;;
3068;SDS011;1545;51.728;8.796;2023-02-27T09:31:14;16.97;;;5.47;;
3068;SDS011;1545;51.728;8.796;2023-02-27T09:33:41;13.10;;;5.03;;
3068;SDS011;1545;51.728;8.796;2023-02-27T09:36:06;10.20;;;4.90;;
3068;SDS011;1545;51.728;8.796;2023-02-27T09:38:33;8.93;;;5.03;;
3068;SDS011;1545;51.728;8.796;2023-02-27T09:40:59;13.93;;;4.93;;
3068;SDS011;1545;51.728;8.796;2023-02-27T09:43:48;12.87;;;3.77;;
3068;SDS011;1545;51.728;8.796;2023-02-27T09:46:16;5.90;;;2.50;;
3068;SDS011;1545;51.728;8.796;2023-02-27T09:51:25;10.43;;;2.90;;
3068;SDS011;1545;51.728;8.796;2023-02-27T09:53:59;3.97;;;2.50;;
3068;SDS011;1545;51.728;8.796;2023-02-27T09:56:26;10.27;;;2.67;;
3068;SDS011;1545;51.728;8.796;2023-02-27T09:59:01;5.90;;;2.50;;
3068;SDS011;1545;51.728;8.796;2023-02-27T10:02:31;8.27;;;3.77;;
3068;SDS011;1545;51.728;8.796;2023-02-27T10:04:52;13.10;;;3.93;;
3068;SDS011;1545;51.728;8.796;2023-02-27T10:07:43;9.93;;;4.03;;
3068;SDS011;1545;51.728;8.796;2023-02-27T10:13:05;9.47;;;3.40;;
3068;SDS011;1545;51.728;8.796;2023-02-27T10:15:52;10.80;;;4.33;;
3068;SDS011;1545;51.728;8.796;2023-02-27T10:18:20;9.73;;;4.47;;
3068;SDS011;1545;51.728;8.796;2023-02-27T10:20:59;9.87;;;4.27;;
3068;SDS011;1545;51.728;8.796;2023-02-27T10:23:36;10.47;;;3.10;;
3068;SDS011;1545;51.728;8.796;2023-02-27T10:26:27;8.47;;;2.90;;
3068;SDS011;1545;51.728;8.796;2023-02-27T10:28:56;6.80;;;2.47;;
3068;SDS011;1545;51.728;8.796;2023-02-27T10:31:28;8.40;;;3.17;;
3068;SDS011;1545;51.728;8.796;2023-02-27T10:33:57;7.93;;;2.80;;
3068;SDS011;1545;51.728;8.796;2023-02-27T10:36:26;7.20;;;2.73;;
3068;SDS011;1545;51.728;8.796;2023-02-27T10:38:57;9.70;;;2.90;;
3068;SDS011;1545;51.728;8.796;2023-02-27T10:41:24;8.23;;;2.97;;
3068;SDS011;1545;51.728;8.796;2023-02-27T10:43:53;6.93;;;2.40;;
3068;SDS011;1545;51.728;8.796;2023-02-27T10:46:26;7.23;;;2.50;;
3068;SDS011;1545;51.728;8.796;2023-02-27T10:48:53;6.53;;;2.90;;
3068;SDS011;1545;51.728;8.796;2023-02-27T10:53:49;8.47;;;2.93;;
3068;SDS011;1545;51.728;8.796;2023-02-27T10:56:24;10.07;;;2.50;;
3068;SDS011;1545;51.728;8.796;2023-02-27T10:59:01;7.93;;;3.10;;
3068;SDS011;1545;51.728;8.796;2023-02-27T11:01:39;6.87;;;3.00;;
3068;SDS011;1545;51.728;8.796;2023-02-27T11:04:10;7.20;;;3.00;;
3068;SDS011;1545;51.728;8.796;2023-02-27T11:06:36;9.57;;;2.83;;
3068;SDS011;1545;51.728;8.796;2023-02-27T11:11:45;13.00;;;3.30;;
3068;SDS011;1545;51.728;8.796;2023-02-27T11:14:31;7.60;;;3.07;;
3068;SDS011;1545;51.728;8.796;2023-02-27T11:17:01;8.17;;;3.00;;
3068;SDS011;1545;51.728;8.796;2023-02-27T11:22:04;10.90;;;3.53;;
3068;SDS011;1545;51.728;8.796;2023-02-27T11:24:32;12.13;;;3.53;;
3068;SDS011;1545;51.728;8.796;2023-02-27T11:27:00;14.43;;;3.10;;
3068;SDS011;1545;51.728;8.796;2023-02-27T11:29:29;14.13;;;3.47;;
3068;SDS011;1545;51.728;8.796;2023-02-27T11:32:09;8.60;;;3.40;;
3068;SDS011;1545;51.728;8.796;2023-02-27T11:34:38;10.43;;;3.60;;
3068;SDS011;1545;51.728;8.796;2023-02-27T11:37:22;13.50;;;3.77;;
3068;SDS011;1545;51.728;8.796;2023-02-27T11:39:49;13.13;;;3.93;;
3068;SDS011;1545;51.728;8.796;2023-02-27T11:42:19;21.23;;;4.27;;
3068;SDS011;1545;51.728;8.796;2023-02-27T11:45:05;11.50;;;3.83;;
3068;SDS011;1545;51.728;8.796;2023-02-27T11:47:53;13.77;;;3.67;;
3068;SDS011;1545;51.728;8.796;2023-02-27T11:50:36;11.77;;;3.90;;
3068;SDS011;1545;51.728;8.796;2023-02-27T11:56:02;10.53;;;4.23;;
3068;SDS011;1545;51.728;8.796;2023-02-27T11:58:34;11.70;;;3.97;;
3068;SDS011;1545;51.728;8.796;2023-02-27T12:01:08;12.23;;;4.40;;
3068;SDS011;1545;51.728;8.796;2023-02-27T12:06:22;10.20;;;3.70;;
3068;SDS011;1545;51.728;8.796;2023-02-27T12:08:55;12.80;;;3.30;;
3068;SDS011;1545;51.728;8.796;2023-02-27T12:11:26;7.07;;;3.50;;
3068;SDS011;1545;51.728;8.796;2023-02-27T12:14:03;8.43;;;3.90;;
3068;SDS011;1545;51.728;8.796;2023-02-27T12:21:40;8.60;;;3.63;;
3068;SDS011;1545;51.728;8.796;2023-02-27T12:24:27;13.93;;;4.30;;
3068;SDS011;1545;51.728;8.796;2023-02-27T12:30:01;8.63;;;3.80;;
3068;SDS011;1545;51.728;8.796;2023-02-27T12:32:44;11.90;;;4.03;;
3068;SDS011;1545;51.728;8.796;2023-02-27T12:37:58;6.83;;;3.70;;
3068;SDS011;1545;51.728;8.796;2023-02-27T12:40:29;9.23;;;3.63;;
3068;SDS011;1545;51.728;8.796;2023-02-27T12:46:05;8.73;;;4.10;;
3068;SDS011;1545;51.728;8.796;2023-02-27T12:56:44;7.53;;;3.60;;
3068;SDS011;1545;51.728;8.796;2023-02-27T12:59:44;8.80;;;3.50;;
3068;SDS011;1545;51.728;8.796;2023-02-27T13:05:27;8.40;;;2.80;;
3068;SDS011;1545;51.728;8.796;2023-02-27T13:08:14;7.83;;;3.30;;
3068;SDS011;1545;51.728;8.796;2023-02-27T13:13:54;6.07;;;2.90;;
3068;SDS011;1545;51.728;8.796;2023-02-27T13:16:36;6.93;;;2.90;;
3068;SDS011;1545;51.728;8.796;2023-02-27T13:19:19;5.40;;;2.70;;
3068;SDS011;1545;51.728;8.796;2023-02-27T13:22:10;6.33;;;2.90;;
3068;SDS011;1545;51.728;8.796;2023-02-27T13:24:41;5.27;;;2.60;;
3068;SDS011;1545;51.728;8.796;2023-02-27T13:27:21;7.20;;;3.53;;
3068;SDS011;1545;51.728;8.796;2023-02-27T13:30:11;7.17;;;2.70;;
3068;SDS011;1545;51.728;8.796;2023-02-27T13:35:41;10.30;;;3.43;;
3068;SDS011;1545;51.728;8.796;2023-02-27T13:38:29;11.17;;;3.10;;
3068;SDS011;1545;51.728;8.796;2023-02-27T13:43:49;6.97;;;3.20;;
3068;SDS011;1545;51.728;8.796;2023-02-27T13:46:24;5.67;;;3.23;;
3068;SDS011;1545;51.728;8.796;2023-02-27T13:49:19;8.43;;;3.30;;
3068;SDS011;1545;51.728;8.796;2023-02-27T13:51:48;7.43;;;3.00;;
3068;SDS011;1545;51.728;8.796;2023-02-27T13:59:17;13.03;;;3.50;;
3068;SDS011;1545;51.728;8.796;2023-02-27T14:01:53;5.73;;;3.10;;
3068;SDS011;1545;51.728;8.796;2023-02-27T14:04:22;6.13;;;3.27;;
3068;SDS011;1545;51.728;8.796;2023-02-27T14:06:50;6.17;;;2.97;;
3068;SDS011;1545;51.728;8.796;2023-02-27T14:09:22;7.57;;;3.30;;
3068;SDS011;1545;51.728;8.796;2023-02-27T14:11:53;6.30;;;2.87;;
3068;SDS011;1545;51.728;8.796;2023-02-27T14:17:10;9.17;;;3.33;;
3068;SDS011;1545;51.728;8.796;2023-02-27T14:19:55;10.17;;;3.70;;
3068;SDS011;1545;51.728;8.796;2023-02-27T14:22:27;10.93;;;3.53;;
3068;SDS011;1545;51.728;8.796;2023-02-27T14:27:50;8.40;;;3.53;;
3068;SDS011;1545;51.728;8.796;2023-02-27T14:30:22;7.07;;;2.97;;
3068;SDS011;1545;51.728;8.796;2023-02-27T14:32:50;6.17;;;3.37;;
3068;SDS011;1545;51.728;8.796;2023-02-27T14:35:21;6.63;;;3.47;;
3068;SDS011;1545;51.728;8.796;2023-02-27T14:37:46;8.70;;;3.70;;
3068;SDS011;1545;51.728;8.796;2023-02-27T14:40:18;8.37;;;3.57;;
3068;SDS011;1545;51.728;8.796;2023-02-27T14:42:49;8.27;;;3.47;;
3068;SDS011;1545;51.728;8.796;2023-02-27T14:45:31;8.43;;;3.67;;
3068;SDS011;1545;51.728;8.796;2023-02-27T14:47:57;9.90;;;3.90;;
3068;SDS011;1545;51.728;8.796;2023-02-27T14:52:53;13.73;;;3.57;;
3068;SDS011;1545;51.728;8.796;2023-02-27T15:00:43;6.83;;;3.33;;
3068;SDS011;1545;51.728;8.796;2023-02-27T15:03:25;6.67;;;3.40;;
3068;SDS011;1545;51.728;8.796;2023-02-27T15:05:54;8.10;;;3.93;;
3068;SDS011;1545;51.728;8.796;2023-02-27T15:08:34;6.53;;;3.63;;
3068;SDS011;1545;51.728;8.796;2023-02-27T15:11:03;6.77;;;3.50;;
3068;SDS011;1545;51.728;8.796;2023-02-27T15:13:30;11.03;;;3.90;;
3068;SDS011;1545;51.728;8.796;2023-02-27T15:18:47;15.87;;;4.30;;
3068;SDS011;1545;51.728;8.796;2023-02-27T15:21:16;8.07;;;3.87;;
3068;SDS011;1545;51.728;8.796;2023-02-27T15:23:53;12.27;;;3.87;;
3068;SDS011;1545;51.728;8.796;2023-02-27T15:26:19;10.17;;;3.50;;
3068;SDS011;1545;51.728;8.796;2023-02-27T15:28:46;8.70;;;3.70;;
3068;SDS011;1545;51.728;8.796;2023-02-27T15:31:16;7.67;;;3.93;;
3068;SDS011;1545;51.728;8.796;2023-02-27T15:33:45;11.83;;;4.00;;
3068;SDS011;1545;51.728;8.796;2023-02-27T15:36:15;6.80;;;3.37;;
3068;SDS011;1545;51.728;8.796;2023-02-27T15:41:31;8.13;;;3.80;;
3068;SDS011;1545;51.728;8.796;2023-02-27T15:43:57;8.53;;;3.80;;
3068;SDS011;1545;51.728;8.796;2023-02-27T15:46:23;9.00;;;3.70;;
3068;SDS011;1545;51.728;8.796;2023-02-27T15:48:49;9.30;;;4.10;;
3068;SDS011;1545;51.728;8.796;2023-02-27T15:51:16;9.07;;;4.20;;
3068;SDS011;1545;51.728;8.796;2023-02-27T15:53:42;15.70;;;3.70;;
3068;SDS011;1545;51.728;8.796;2023-02-27T15:56:12;7.00;;;3.20;;
3068;SDS011;1545;51.728;8.796;2023-02-27T15:58:48;11.80;;;4.33;;
3068;SDS011;1545;51.728;8.796;2023-02-27T16:01:22;10.50;;;3.77;;
3068;SDS011;1545;51.728;8.796;2023-02-27T16:03:51;7.17;;;3.60;;
3068;SDS011;1545;51.728;8.796;2023-02-27T16:06:26;7.80;;;3.80;;
3068;SDS011;1545;51.728;8.796;2023-02-27T16:08:57;7.00;;;3.33;;
3068;SDS011;1545;51.728;8.796;2023-02-27T16:11:26;8.77;;;3.60;;
3068;SDS011;1545;51.728;8.796;2023-02-27T16:13:54;11.70;;;4.03;;
3068;SDS011;1545;51.728;8.796;2023-02-27T16:18:49;13.53;;;3.97;;
3068;SDS011;1545;51.728;8.796;2023-02-27T16:21:17;9.33;;;4.10;;
3068;SDS011;1545;51.728;8.796;2023-02-27T16:23:45;8.10;;;3.90;;
3068;SDS011;1545;51.728;8.796;2023-02-27T16:26:28;8.17;;;4.10;;
3068;SDS011;1545;51.728;8.796;2023-02-27T16:29:00;8.10;;;3.97;;
3068;SDS011;1545;51.728;8.796;2023-02-27T16:33:59;6.73;;;3.60;;
3068;SDS011;1545;51.728;8.796;2023-02-27T16:36:28;8.87;;;3.80;;
3068;SDS011;1545;51.728;8.796;2023-02-27T16:38:54;9.27;;;4.50;;
3068;SDS011;1545;51.728;8.796;2023-02-27T16:41:20;7.43;;;3.73;;
3068;SDS011;1545;51.728;8.796;2023-02-27T16:43:47;6.40;;;3.80;;
3068;SDS011;1545;51.728;8.796;2023-02-27T16:46:14;13.50;;;4.47;;
3068;SDS011;1545;51.728;8.796;2023-02-27T16:48:54;7.10;;;3.63;;
3068;SDS011;1545;51.728;8.796;2023-02-27T16:51:24;8.10;;;4.00;;
3068;SDS011;1545;51.728;8.796;2023-02-27T16:53:52;9.83;;;4.27;;
3068;SDS011;1545;51.728;8.796;2023-02-27T16:56:19;10.80;;;3.80;;
3068;SDS011;1545;51.728;8.796;2023-02-27T16:58:47;8.13;;;3.93;;
3068;SDS011;1545;51.728;8.796;2023-02-27T17:01:13;22.40;;;4.50;;
3068;SDS011;1545;51.728;8.796;2023-02-27T17:03:42;8.73;;;3.93;;
3068;SDS011;1545;51.728;8.796;2023-02-27T17:06:09;9.40;;;4.37;;
3068;SDS011;1545;51.728;8.796;2023-02-27T17:08:36;8.43;;;4.20;;
3068;SDS011;1545;51.728;8.796;2023-02-27T17:11:06;13.13;;;4.80;;
3068;SDS011;1545;51.728;8.796;2023-02-27T17:13:31;10.00;;;4.80;;
3068;SDS011;1545;51.728;8.796;2023-02-27T17:15:59;16.47;;;5.50;;
3068;SDS011;1545;51.728;8.796;2023-02-27T17:18:25;18.50;;;5.87;;
3068;SDS011;1545;51.728;8.796;2023-02-27T17:20:51;13.13;;;6.50;;
3068;SDS011;1545;51.728;8.796;2023-02-27T17:23:17;12.00;;;6.40;;
3068;SDS011;1545;51.728;8.796;2023-02-27T17:25:43;10.50;;;5.60;;
3068;SDS011;1545;51.728;8.796;2023-02-27T17:28:08;18.67;;;5.97;;
3068;SDS011;1545;51.728;8.796;2023-02-27T17:30:34;12.47;;;5.63;;
3068;SDS011;1545;51.728;8.796;2023-02-27T17:33:00;14.67;;;5.43;;
3068;SDS011;1545;51.728;8.796;2023-02-27T17:35:25;11.63;;;4.90;;
3068;SDS011;1545;51.728;8.796;2023-02-27T17:37:51;9.60;;;5.20;;
3068;SDS011;1545;51.728;8.796;2023-02-27T17:40:17;12.20;;;5.50;;
3068;SDS011;1545;51.728;8.796;2023-02-27T17:42:42;12.43;;;5.87;;
3068;SDS011;1545;51.728;8.796;2023-02-27T17:45:09;8.60;;;4.90;;
3068;SDS011;1545;51.728;8.796;2023-02-27T17:47:35;11.80;;;5.60;;
3068;SDS011;1545;51.728;8.796;2023-02-27T17:50:01;17.33;;;4.47;;
3068;SDS011;1545;51.728;8.796;2023-02-27T17:52:28;10.63;;;5.43;;